createdAt,value
2022-11-26T00:01:25.135Z,2.33
2022-11-26T00:03:56.996Z,2.20
2022-11-26T00:06:35.118Z,2.26
2022-11-26T00:09:05.986Z,2.09
2022-11-26T00:11:35.248Z,2.23
2022-11-26T00:14:04.761Z,2.26
2022-11-26T00:16:34.512Z,2.39
2022-11-26T00:19:05.589Z,2.34
2022-11-26T00:21:37.378Z,2.23
2022-11-26T00:24:08.178Z,2.17
2022-11-26T00:26:37.550Z,2.22
2022-11-26T00:29:07.335Z,2.32
2022-11-26T00:31:36.861Z,2.44
2022-11-26T00:34:07.724Z,2.50
2022-11-26T00:36:37.299Z,2.47
2022-11-26T00:39:10.938Z,2.34
2022-11-26T00:41:41.161Z,2.26
2022-11-26T00:44:19.149Z,2.41
2022-11-26T00:46:48.808Z,2.40
2022-11-26T00:49:20.867Z,2.46
2022-11-26T00:51:50.229Z,2.57
2022-11-26T00:54:20.733Z,2.57
2022-11-26T00:56:51.483Z,2.62
2022-11-26T00:59:23.386Z,2.57
2022-11-26T01:01:52.643Z,2.40
2022-11-26T01:04:23.613Z,2.50
2022-11-26T01:06:52.721Z,2.57
2022-11-26T01:09:23.215Z,2.59
2022-11-26T01:11:54.468Z,2.65
2022-11-26T01:14:25.104Z,2.64
2022-11-26T01:16:57.257Z,2.61
2022-11-26T01:19:28.446Z,2.66
2022-11-26T01:21:57.530Z,2.65
2022-11-26T01:24:27.001Z,2.68
2022-11-26T01:26:56.371Z,2.62
2022-11-26T01:29:25.710Z,2.62
2022-11-26T01:31:54.843Z,2.64
2022-11-26T01:34:24.658Z,2.62
2022-11-26T01:36:55.155Z,2.57
2022-11-26T01:39:25.421Z,2.58
2022-11-26T01:42:00.963Z,2.59
2022-11-26T01:44:33.077Z,2.61
2022-11-26T01:47:03.103Z,2.65
2022-11-26T01:49:34.663Z,2.71
2022-11-26T01:52:12.345Z,2.74
2022-11-26T01:54:44.489Z,2.71
2022-11-26T01:57:18.733Z,2.71
2022-11-26T01:59:54.046Z,2.77
2022-11-26T02:02:26.438Z,2.79
2022-11-26T02:05:02.448Z,2.81
2022-11-26T02:07:33.085Z,2.79
2022-11-26T02:10:02.542Z,2.69
2022-11-26T02:12:31.834Z,2.70
2022-11-26T02:15:01.433Z,2.67
2022-11-26T02:17:37.770Z,2.80
2022-11-26T02:20:33.154Z,2.77
2022-11-26T02:23:36.004Z,2.69
2022-11-26T02:26:32.074Z,2.57
2022-11-26T02:29:11.400Z,2.74
2022-11-26T02:31:47.672Z,2.72
2022-11-26T02:34:22.720Z,2.78
2022-11-26T02:36:55.849Z,2.75
2022-11-26T02:39:26.818Z,2.75
2022-11-26T02:41:58.113Z,2.69
2022-11-26T02:44:30.813Z,2.63
2022-11-26T02:47:06.239Z,2.76
2022-11-26T02:49:37.235Z,2.81
2022-11-26T02:52:09.073Z,2.82
2022-11-26T02:54:39.461Z,2.81
2022-11-26T02:57:13.114Z,2.87
2022-11-26T02:59:43.620Z,2.75
2022-11-26T03:02:21.544Z,2.81
2022-11-26T03:04:54.307Z,2.81
2022-11-26T03:07:24.039Z,2.72
2022-11-26T03:09:56.613Z,2.74
2022-11-26T03:12:26.832Z,2.75
2022-11-26T03:14:56.110Z,2.79
2022-11-26T03:17:26.850Z,2.75
2022-11-26T03:19:55.930Z,2.84
2022-11-26T03:22:25.329Z,2.79
2022-11-26T03:24:54.708Z,2.78
2022-11-26T03:27:24.040Z,2.70
2022-11-26T03:29:53.043Z,2.77
2022-11-26T03:33:47.394Z,2.72
2022-11-26T03:36:17.808Z,2.84
2022-11-26T03:38:47.238Z,2.77
2022-11-26T03:41:16.377Z,2.75
2022-11-26T03:43:45.751Z,2.94
2022-11-26T03:46:14.875Z,2.99
2022-11-26T03:48:44.242Z,3.05
2022-11-26T03:51:13.268Z,3.08
2022-11-26T03:53:43.977Z,3.07
2022-11-26T03:56:12.974Z,3.13
2022-11-26T03:58:42.346Z,3.02
2022-11-26T04:01:13.266Z,3.04
2022-11-26T04:03:43.197Z,3.08
2022-11-26T04:06:12.302Z,3.09
2022-11-26T04:08:43.042Z,3.12
2022-11-26T04:11:12.116Z,3.30
2022-11-26T04:13:41.441Z,3.17
2022-11-26T04:16:11.084Z,3.29
2022-11-26T04:18:40.454Z,3.44
2022-11-26T04:21:09.981Z,3.39
2022-11-26T04:23:39.318Z,3.15
2022-11-26T04:26:09.824Z,3.11
2022-11-26T04:28:39.312Z,2.96
2022-11-26T04:31:08.696Z,3.07
2022-11-26T04:33:38.102Z,3.08
2022-11-26T04:36:07.799Z,3.12
2022-11-26T04:38:38.039Z,3.19
2022-11-26T04:41:08.622Z,3.30
2022-11-26T04:43:37.992Z,3.31
2022-11-26T04:46:07.417Z,3.39
2022-11-26T04:48:36.820Z,3.22
2022-11-26T04:51:06.040Z,3.35
2022-11-26T04:53:35.587Z,3.22
2022-11-26T04:56:04.813Z,3.36
2022-11-26T04:58:35.606Z,3.33
2022-11-26T05:01:05.034Z,3.23
2022-11-26T05:03:34.415Z,3.24
2022-11-26T05:06:03.530Z,3.12
2022-11-26T05:08:33.055Z,3.17
2022-11-26T05:11:03.218Z,3.11
2022-11-26T05:13:34.313Z,3.10
2022-11-26T05:16:03.353Z,3.18
2022-11-26T05:18:32.664Z,3.13
2022-11-26T05:21:01.769Z,3.19
2022-11-26T05:23:31.130Z,3.20
2022-11-26T05:26:00.352Z,3.30
2022-11-26T05:28:29.729Z,3.36
2022-11-26T05:31:04.702Z,3.38
2022-11-26T05:33:34.256Z,3.44
2022-11-26T05:36:03.405Z,3.41
2022-11-26T05:38:32.781Z,3.51
2022-11-26T05:41:01.810Z,3.45
2022-11-26T05:43:31.232Z,3.33
2022-11-26T05:46:07.151Z,3.36
2022-11-26T05:48:36.684Z,3.37
2022-11-26T05:51:05.994Z,3.36
2022-11-26T05:53:35.424Z,3.40
2022-11-26T05:56:04.764Z,3.35
2022-11-26T05:58:34.175Z,3.39
2022-11-26T06:01:09.658Z,3.44
2022-11-26T06:03:38.968Z,3.44
2022-11-26T06:06:08.818Z,3.43
2022-11-26T06:08:38.264Z,3.44
2022-11-26T06:11:07.654Z,3.45
2022-11-26T06:13:37.033Z,3.53
2022-11-26T06:16:06.504Z,3.54
2022-11-26T06:18:38.823Z,3.49
2022-11-26T06:21:09.219Z,3.56
2022-11-26T06:23:38.840Z,3.54
2022-11-26T06:26:09.982Z,3.56
2022-11-26T06:28:40.235Z,3.57
2022-11-26T06:31:11.083Z,3.45
2022-11-26T06:33:41.874Z,3.35
2022-11-26T06:36:11.675Z,3.45
2022-11-26T06:38:40.970Z,3.51
2022-11-26T06:41:10.487Z,3.52
2022-11-26T06:43:40.113Z,3.49
2022-11-26T06:46:11.299Z,3.54
2022-11-26T06:48:42.407Z,3.62
2022-11-26T06:51:14.054Z,3.61
2022-11-26T06:53:43.745Z,3.68
2022-11-26T06:56:18.342Z,3.69
2022-11-26T06:58:50.246Z,3.67
2022-11-26T07:01:22.567Z,3.74
2022-11-26T07:03:53.882Z,3.74
2022-11-26T07:06:25.270Z,3.78
2022-11-26T07:08:56.340Z,3.79
2022-11-26T07:11:26.636Z,3.73
2022-11-26T07:13:56.054Z,3.82
2022-11-26T07:16:25.343Z,3.84
2022-11-26T07:19:02.692Z,3.83
2022-11-26T07:21:32.811Z,3.71
2022-11-26T07:24:02.168Z,3.68
2022-11-26T07:26:31.332Z,3.82
2022-11-26T07:29:00.795Z,3.89
2022-11-26T07:31:29.905Z,3.85
2022-11-26T07:34:00.868Z,3.97
2022-11-26T07:36:31.861Z,3.90
2022-11-26T07:39:03.033Z,3.97
2022-11-26T07:41:32.550Z,3.89
2022-11-26T07:44:01.798Z,3.93
2022-11-26T07:46:31.024Z,4.00
2022-11-26T07:49:01.741Z,4.02
2022-11-26T07:51:33.269Z,3.90
2022-11-26T07:54:06.900Z,4.01
2022-11-26T07:56:36.723Z,3.81
2022-11-26T07:59:06.422Z,3.86
2022-11-26T08:01:35.543Z,3.94
2022-11-26T08:04:07.712Z,4.11
2022-11-26T08:06:36.800Z,4.09
2022-11-26T08:09:07.607Z,3.89
2022-11-26T08:11:36.795Z,3.75
2022-11-26T08:14:07.720Z,3.69
2022-11-26T08:16:37.048Z,3.70
2022-11-26T08:19:09.940Z,3.82
2022-11-26T08:21:39.640Z,3.87
2022-11-26T08:24:13.773Z,4.12
2022-11-26T08:26:44.458Z,4.23
2022-11-26T08:29:14.430Z,4.32
2022-11-26T08:31:46.372Z,4.14
2022-11-26T08:34:18.618Z,4.23
2022-11-26T08:36:48.032Z,4.28
2022-11-26T08:39:19.018Z,4.36
2022-11-26T08:41:52.160Z,4.42
2022-11-26T08:44:22.739Z,4.36
2022-11-26T08:46:51.907Z,4.29
2022-11-26T08:49:22.574Z,4.22
2022-11-26T08:51:51.636Z,4.12
2022-11-26T08:54:21.064Z,4.39
2022-11-26T08:56:50.405Z,4.40
2022-11-26T08:59:22.971Z,4.68
2022-11-26T09:01:52.373Z,4.71
2022-11-26T09:04:23.284Z,4.84
2022-11-26T09:06:52.316Z,4.72
2022-11-26T09:09:21.694Z,4.73
2022-11-26T09:11:54.042Z,4.77
2022-11-26T09:14:25.860Z,4.75
2022-11-26T09:16:56.779Z,4.70
2022-11-26T09:19:28.575Z,4.52
2022-11-26T09:21:57.835Z,4.53
2022-11-26T09:24:27.617Z,4.47
2022-11-26T09:26:56.709Z,4.51
2022-11-26T09:29:26.194Z,4.51
2022-11-26T09:32:22.531Z,4.41
2022-11-26T09:34:46.160Z,4.52
2022-11-26T09:37:15.316Z,4.70
2022-11-26T09:39:44.632Z,4.88
2022-11-26T09:42:24.505Z,4.89
2022-11-26T09:45:09.974Z,4.91
2022-11-26T09:47:41.887Z,4.97
2022-11-26T09:50:26.912Z,4.92
2022-11-26T09:53:00.503Z,4.92
2022-11-26T09:55:33.013Z,5.08
2022-11-26T09:58:12.029Z,5.05
2022-11-26T10:00:44.144Z,4.89
2022-11-26T10:03:16.823Z,4.89
2022-11-26T10:05:54.614Z,5.07
2022-11-26T10:08:58.034Z,5.19
2022-11-26T10:11:35.238Z,5.19
2022-11-26T10:14:23.799Z,5.19
2022-11-26T10:17:10.465Z,5.12
2022-11-26T10:19:53.322Z,4.89
2022-11-26T10:22:30.020Z,4.91
2022-11-26T10:25:00.764Z,4.99
2022-11-26T10:27:35.087Z,5.11
2022-11-26T10:30:17.949Z,5.07
2022-11-26T10:32:49.482Z,5.16
2022-11-26T10:35:20.448Z,5.42
2022-11-26T10:37:51.925Z,5.61
2022-11-26T10:40:25.634Z,5.63
2022-11-26T10:43:04.317Z,5.54
2022-11-26T10:45:40.334Z,5.80
2022-11-26T10:48:24.220Z,5.56
2022-11-26T10:51:02.205Z,5.25
2022-11-26T10:53:48.256Z,5.39
2022-11-26T10:56:21.089Z,5.65
2022-11-26T10:58:53.406Z,5.50
2022-11-26T11:01:22.839Z,5.36
2022-11-26T11:04:10.265Z,5.39
2022-11-26T11:06:42.618Z,5.65
2022-11-26T11:09:26.722Z,5.67
2022-11-26T11:12:19.081Z,5.99
2022-11-26T11:14:49.360Z,5.70
2022-11-26T11:17:32.905Z,5.59
2022-11-26T11:20:23.408Z,5.94
2022-11-26T11:23:03.736Z,5.88
2022-11-26T11:25:36.296Z,5.97
2022-11-26T11:28:12.384Z,6.00
2022-11-26T11:30:43.461Z,5.79
2022-11-26T11:33:20.642Z,5.85
2022-11-26T11:36:08.482Z,5.88
2022-11-26T11:38:50.302Z,5.91
2022-11-26T11:41:26.605Z,5.79
2022-11-26T11:44:01.292Z,5.69
2022-11-26T11:46:53.913Z,5.67
2022-11-26T11:49:33.047Z,5.69
2022-11-26T11:52:21.005Z,5.66
2022-11-26T11:55:00.199Z,5.83
2022-11-26T11:57:58.093Z,5.66
2022-11-26T12:00:40.469Z,5.56
2022-11-26T12:03:32.426Z,5.67
2022-11-26T12:06:13.871Z,5.66
2022-11-26T12:08:55.225Z,6.00
2022-11-26T12:11:35.416Z,5.98
2022-11-26T12:14:24.695Z,6.06
2022-11-26T12:17:00.453Z,5.93
2022-11-26T12:19:39.563Z,5.94
2022-11-26T12:22:15.832Z,6.12
2022-11-26T12:24:49.243Z,6.26
2022-11-26T12:27:33.196Z,6.14
2022-11-26T12:30:06.318Z,6.28
2022-11-26T12:32:39.652Z,6.37
2022-11-26T12:35:16.039Z,6.21
2022-11-26T12:37:46.785Z,6.36
2022-11-26T12:40:29.707Z,6.11
2022-11-26T12:43:03.488Z,6.11
2022-11-26T12:45:49.248Z,6.03
2022-11-26T12:48:40.699Z,6.02
2022-11-26T12:51:22.899Z,5.94
2022-11-26T12:54:01.237Z,6.00
2022-11-26T12:56:36.852Z,5.95
2022-11-26T12:59:11.553Z,5.96
2022-11-26T13:01:42.330Z,5.99
2022-11-26T13:07:17.517Z,6.04
2022-11-26T13:10:00.305Z,5.73
2022-11-26T13:12:41.337Z,6.01
2022-11-26T13:15:22.978Z,6.27
2022-11-26T13:17:54.306Z,6.16
2022-11-26T13:20:38.232Z,6.24
2022-11-26T13:23:25.529Z,6.12
2022-11-26T13:26:24.764Z,6.34
2022-11-26T13:29:10.409Z,6.31
2022-11-26T13:31:55.213Z,6.37
2022-11-26T13:34:37.276Z,6.35
2022-11-26T13:37:25.345Z,6.12
2022-11-26T13:40:30.120Z,6.03
2022-11-26T13:43:29.058Z,6.06
2022-11-26T13:46:09.360Z,6.00
2022-11-26T13:48:49.181Z,5.84
2022-11-26T13:51:28.114Z,5.92
2022-11-26T13:54:01.612Z,5.87
2022-11-26T13:56:32.913Z,5.85
2022-11-26T13:59:05.562Z,5.86
2022-11-26T14:01:40.280Z,5.80
2022-11-26T14:04:11.646Z,5.85
2022-11-26T14:07:21.178Z,5.86
2022-11-26T14:09:55.686Z,5.87
2022-11-26T14:12:46.016Z,5.85
2022-11-26T14:15:48.417Z,5.84
2022-11-26T14:18:19.376Z,5.82
2022-11-26T14:21:13.186Z,5.76
2022-11-26T14:23:48.803Z,5.71
2022-11-26T14:26:23.331Z,5.50
2022-11-26T14:28:53.694Z,5.51
2022-11-26T14:31:25.048Z,5.46
2022-11-26T14:33:57.948Z,5.47
2022-11-26T14:36:28.621Z,5.38
2022-11-26T14:39:12.967Z,5.44
2022-11-26T14:42:01.954Z,5.38
2022-11-26T14:44:35.274Z,5.32
2022-11-26T14:47:14.975Z,5.27
2022-11-26T14:49:48.585Z,5.23
2022-11-26T14:52:21.477Z,5.22
2022-11-26T14:54:54.848Z,5.21
2022-11-26T14:57:27.575Z,5.23
2022-11-26T14:59:59.323Z,5.24
2022-11-26T15:02:30.889Z,5.18
2022-11-26T15:05:02.316Z,5.11
2022-11-26T15:07:32.462Z,5.08
2022-11-26T15:10:05.889Z,5.03
2022-11-26T15:12:37.151Z,5.04
2022-11-26T15:15:07.557Z,5.03
2022-11-26T15:17:37.302Z,4.99
2022-11-26T15:20:14.245Z,4.92
2022-11-26T15:22:49.313Z,4.82
2022-11-26T15:25:23.109Z,4.78
2022-11-26T15:27:59.065Z,4.85
2022-11-26T15:30:30.559Z,4.81
2022-11-26T15:33:02.101Z,4.85
2022-11-26T15:35:33.337Z,4.85
2022-11-26T15:38:03.172Z,4.82
2022-11-26T15:40:46.862Z,4.86
2022-11-26T15:43:23.936Z,4.94
2022-11-26T15:45:55.872Z,4.86
2022-11-26T15:48:50.433Z,4.84
2022-11-26T15:51:30.728Z,4.92
2022-11-26T15:54:04.423Z,4.94
2022-11-26T15:56:38.924Z,4.94
2022-11-26T15:59:15.434Z,4.97
2022-11-26T16:01:47.541Z,4.97
2022-11-26T16:04:40.299Z,4.95
2022-11-26T16:07:11.123Z,4.90
2022-11-26T16:09:40.603Z,4.97
2022-11-26T16:12:28.048Z,4.94
2022-11-26T16:15:14.766Z,4.95
2022-11-26T16:17:45.641Z,4.98
2022-11-26T16:20:19.994Z,4.94
2022-11-26T16:22:52.446Z,4.89
2022-11-26T16:25:24.026Z,4.94
2022-11-26T16:28:16.979Z,4.71
2022-11-26T16:30:46.667Z,4.53
2022-11-26T16:33:16.079Z,4.44
2022-11-26T16:35:46.557Z,4.32
2022-11-26T16:38:24.211Z,4.17
2022-11-26T16:40:54.146Z,4.05
2022-11-26T16:43:25.007Z,4.01
2022-11-26T16:45:56.496Z,3.90
2022-11-26T16:48:27.669Z,3.84
2022-11-26T16:50:57.661Z,3.80
2022-11-26T16:53:27.385Z,3.70
2022-11-26T16:55:56.546Z,3.55
2022-11-26T16:58:31.108Z,3.43
2022-11-26T17:01:00.313Z,3.32
2022-11-26T17:03:33.279Z,3.12
2022-11-26T17:06:05.157Z,3.08
2022-11-26T17:08:36.301Z,2.96
2022-11-26T17:11:05.704Z,3.03
2022-11-26T17:13:36.545Z,3.06
2022-11-26T17:16:06.849Z,3.03
2022-11-26T17:18:36.319Z,3.12
2022-11-26T17:21:05.428Z,3.24
2022-11-26T17:23:34.801Z,3.34
2022-11-26T17:26:04.571Z,3.41
2022-11-26T17:28:35.283Z,3.46
2022-11-26T17:31:04.672Z,3.44
2022-11-26T17:33:34.172Z,3.45
2022-11-26T17:36:03.655Z,3.48
2022-11-26T17:38:33.652Z,3.59
2022-11-26T17:41:02.812Z,3.63
2022-11-26T17:43:32.217Z,3.62
2022-11-26T17:46:03.982Z,3.68
2022-11-26T17:48:33.586Z,3.79
2022-11-26T17:51:03.830Z,3.89
2022-11-26T17:53:33.135Z,3.87
2022-11-26T17:56:03.550Z,3.96
2022-11-26T17:58:33.251Z,3.96
2022-11-26T18:01:03.867Z,4.01
2022-11-26T18:03:33.293Z,4.02
2022-11-26T18:06:02.620Z,3.94
2022-11-26T18:08:33.347Z,4.00
2022-11-26T18:11:02.819Z,4.02
2022-11-26T18:13:32.085Z,4.04
2022-11-26T18:16:03.213Z,4.09
2022-11-26T18:18:32.547Z,4.06
2022-11-26T18:21:01.561Z,4.14
2022-11-26T18:23:30.949Z,4.14
2022-11-26T18:26:02.019Z,4.13
2022-11-26T18:28:31.376Z,4.23
2022-11-26T18:31:00.578Z,4.17
2022-11-26T18:33:31.574Z,4.27
2022-11-26T18:36:00.596Z,4.24
2022-11-26T18:38:31.483Z,4.24
2022-11-26T18:41:03.549Z,4.27
2022-11-26T18:43:33.438Z,4.17
2022-11-26T18:46:05.235Z,4.16
2022-11-26T18:48:37.492Z,4.22
2022-11-26T18:51:07.248Z,4.31
2022-11-26T18:53:37.237Z,4.28
2022-11-26T18:56:09.258Z,4.32
2022-11-26T18:58:39.121Z,4.35
2022-11-26T19:01:14.691Z,4.38
2022-11-26T19:03:45.755Z,4.31
2022-11-26T19:06:17.776Z,4.27
2022-11-26T19:08:48.512Z,4.28
2022-11-26T19:11:20.603Z,4.32
2022-11-26T19:13:50.773Z,4.34
2022-11-26T19:16:21.308Z,4.28
2022-11-26T19:18:52.423Z,4.20
2022-11-26T19:21:23.276Z,4.21
2022-11-26T19:23:53.382Z,4.09
2022-11-26T19:26:23.445Z,4.13
2022-11-26T19:28:53.374Z,4.14
2022-11-26T19:31:26.004Z,4.15
2022-11-26T19:33:58.287Z,4.17
2022-11-26T19:36:27.852Z,4.14
2022-11-26T19:38:59.248Z,4.13
2022-11-26T19:41:29.632Z,4.15
2022-11-26T19:44:00.310Z,4.10
2022-11-26T19:46:32.307Z,4.04
2022-11-26T19:49:03.328Z,3.98
2022-11-26T19:51:32.889Z,4.00
2022-11-26T19:54:02.296Z,3.98
2022-11-26T19:56:32.597Z,3.94
2022-11-26T19:59:02.789Z,3.82
2022-11-26T20:01:34.166Z,3.83
2022-11-26T20:04:08.544Z,3.82
2022-11-26T20:06:38.102Z,3.71
2022-11-26T20:09:08.877Z,3.50
2022-11-26T20:11:39.633Z,3.48
2022-11-26T20:14:10.792Z,3.49
2022-11-26T20:16:43.487Z,3.64
2022-11-26T20:19:14.872Z,3.55
2022-11-26T20:21:44.035Z,3.62
2022-11-26T20:24:15.824Z,3.72
2022-11-26T20:26:48.612Z,3.71
2022-11-26T20:29:22.053Z,3.69
2022-11-26T20:31:52.914Z,3.71
2022-11-26T20:34:26.163Z,3.73
2022-11-26T20:36:55.257Z,3.68
2022-11-26T20:39:25.791Z,3.70
2022-11-26T20:41:54.909Z,3.70
2022-11-26T20:44:26.716Z,3.71
2022-11-26T20:46:57.195Z,3.74
2022-11-26T20:49:33.439Z,3.74
2022-11-26T20:52:03.601Z,3.75
2022-11-26T20:54:33.279Z,3.72
2022-11-26T20:57:02.652Z,3.70
2022-11-26T20:59:32.015Z,3.65
2022-11-26T21:02:01.106Z,3.62
2022-11-26T21:04:31.900Z,3.68
2022-11-26T21:07:01.007Z,3.73
2022-11-26T21:09:30.431Z,3.77
2022-11-26T21:11:59.719Z,3.79
2022-11-26T21:14:29.927Z,3.83
2022-11-26T21:16:59.212Z,3.80
2022-11-26T21:19:30.361Z,3.79
2022-11-26T21:21:59.376Z,3.81
2022-11-26T21:24:28.789Z,3.86
2022-11-26T21:26:57.978Z,3.90
2022-11-26T21:29:27.221Z,3.93
2022-11-26T21:31:56.476Z,3.99
2022-11-26T21:34:26.150Z,3.99
2022-11-26T21:36:56.621Z,4.07
2022-11-26T21:39:25.966Z,4.15
2022-11-26T21:41:54.994Z,4.26
2022-11-26T21:44:24.407Z,4.21
2022-11-26T21:46:53.524Z,4.11
2022-11-26T21:49:23.334Z,4.16
2022-11-26T21:51:52.344Z,4.25
2022-11-26T21:54:23.236Z,4.21
2022-11-26T21:56:52.497Z,4.23
2022-11-26T21:59:21.869Z,4.34
2022-11-26T22:01:51.535Z,4.37
2022-11-26T22:04:21.917Z,4.46
2022-11-26T22:06:51.328Z,4.50
2022-11-26T22:09:22.171Z,4.59
2022-11-26T22:11:51.289Z,4.69
2022-11-26T22:14:20.718Z,4.64
2022-11-26T22:16:52.490Z,4.57
2022-11-26T22:19:21.885Z,4.67
2022-11-26T22:21:51.053Z,4.72
2022-11-26T22:24:22.817Z,4.76
2022-11-26T22:26:52.539Z,4.74
2022-11-26T22:29:22.455Z,4.73
2022-11-26T22:31:51.597Z,4.70
2022-11-26T22:34:22.331Z,4.50
2022-11-26T22:36:51.510Z,4.51
2022-11-26T22:39:22.586Z,4.53
2022-11-26T22:41:51.858Z,4.51
2022-11-26T22:44:21.226Z,4.51
2022-11-26T22:46:50.328Z,4.49
2022-11-26T22:49:20.109Z,4.56
2022-11-26T22:51:49.201Z,4.54
2022-11-26T22:54:19.345Z,4.70
2022-11-26T22:56:49.888Z,4.80
2022-11-26T22:59:19.478Z,4.73
2022-11-26T23:01:48.560Z,4.83
2022-11-26T23:04:18.254Z,4.63
2022-11-26T23:06:47.385Z,4.51
2022-11-26T23:09:17.141Z,4.39
2022-11-26T23:11:46.529Z,4.52
2022-11-26T23:14:17.245Z,4.56
2022-11-26T23:16:46.431Z,4.54
2022-11-26T23:19:16.772Z,4.42
2022-11-26T23:21:46.971Z,4.37
2022-11-26T23:24:17.096Z,4.49
2022-11-26T23:26:46.469Z,4.59
2022-11-26T23:29:17.315Z,4.68
2022-11-26T23:31:46.667Z,4.84
2022-11-26T23:34:16.500Z,4.86
2022-11-26T23:36:45.583Z,4.88
2022-11-26T23:39:15.487Z,5.04
2022-11-26T23:41:44.815Z,5.04
2022-11-26T23:44:14.192Z,5.08
2022-11-26T23:46:44.704Z,4.99
2022-11-26T23:49:14.178Z,4.99
2022-11-26T23:51:43.352Z,4.91
2022-11-26T23:54:12.724Z,5.07
2022-11-26T23:56:44.647Z,5.08
2022-11-26T23:59:14.565Z,5.16
